Airfield :
LOGIN :

Register | Disclaimer

   EN    FR    IT 

 










Legend :    VFR   Marginal VFR   IFR   Intensive IFR   Very Intensive IFR
Visi :
Ceiling :
>= 8 km
>= 3000ft
5 to 8 km
1000 to 3000 ft
1500m to 5 km
500 to 1000 ft
800 to 1500m
200 to 500 ft
< 800m
< 200 ft
Symbols :   Thunderstorms  Fog  Heavy snow  Heavy precipitations  Wind > 20 kt
SIGMETs :     Misc.  Thunderstorms  Icing  Turbulence  Mountain Waves  Volcanic Ashes







- Airport Elevation : 49 ft
- IATA code : GLZ


EHGR - Gilze-Rijen Airbase

CURRENT METAR :
  • 191225Z AUTO 10010KT 060V160 9999 NCD 23/04 Q1027 BLU 07008KT CAVOK

EXPIRED METARs :
  • 191155Z AUTO 08010KT 030V180 9999 NCD 23/04 Q1027 BLU 07008KT CAVOK
  • 191125Z AUTO 06010KT 010V130 9999 NCD 22/05 Q1027 BLU 07008KT CAVOK
  • 191055Z AUTO 07010KT 020V130 9999 NCD 22/05 Q1027 BLU 07008KT CAVOK
  • 191025Z AUTO 07010KT 020V130 9999 NCD 22/05 Q1028 BLU 07008KT CAVOK
  • 190955Z AUTO 07008KT 360V110 9999 NCD 21/06 Q1028 BLU 07008KT CAVOK
  • 190950Z AUTO 07008KT 350V110 9999 NCD 21/06 Q1028 BLU 07008KT CAVOK
  • 190925Z AUTO 05006KT 020V130 9999 NCD 20/05 Q1028 BLU 08008KT CAVOK

TAF TAF EHGR
Valid from the 19 at 09:00 until the 19 at 21:00 UTC


190802Z 1909/1921 08008KT CAVOK
No reported NOTAMs for that airfield.



MET'MAP, your aeronautical weather chart ! - Copyright ORBIFLY December 2007 - Disclaimer

ORBIFLY MET'MAP TEAM :

Programming & Development : Alexandra Zaïnal
Concept & Development : Baudouin d'Aumeries
Co-Development & Prog : Marc-Olivier Méhu
Technical & hardware support : Manuel Goepfert

Contact : metmap@orbifly.com




SOURCES & CREDITS :

   NOAA